Time;durP1;ratioP1;P1;durP2;ratioP2;P2;SDS_P1;SDS_P2;PMS_P1;PMS_P2;Temp;Humidity;BMP_temperature;BMP_pressure;BME280_temperature;BME280_humidity;BME280_pressure;Samples;Min_cycle;Max_cycle;Signal;HPM_P1;HPM_P2
2023/01/13 00:02:07;;;;;;;3.65;0.40;;;;;;;10.65;82.37;99669.13;10199923;28;20058;-63
2023/01/13 00:07:09;;;;;;;1.38;0.30;;;;;;;10.72;81.82;99664.63;10203713;28;20163;-62
2023/01/13 00:12:11;;;;;;;1.40;0.30;;;;;;;10.81;81.75;99654.56;10198683;29;20071;-63
2023/01/13 00:17:12;;;;;;;3.50;0.20;;;;;;;10.83;81.82;99645.28;10202529;28;20151;-62
2023/01/13 00:22:14;;;;;;;1.85;0.30;;;;;;;10.83;81.67;99629.16;10197977;28;20355;-62
2023/01/13 00:27:15;;;;;;;4.32;1.13;;;;;;;10.84;81.77;99625.44;10197223;28;20075;-63
2023/01/13 00:32:17;;;;;;;2.17;0.55;;;;;;;10.83;81.58;99623.78;10208164;28;20078;-61
2023/01/13 00:37:18;;;;;;;4.32;0.65;;;;;;;10.83;81.70;99618.41;10195132;28;20078;-62
2023/01/13 00:47:40;;;;;;;0.77;0.30;;;;;;;10.89;81.67;99593.41;10213239;28;20086;-63
2023/01/13 00:52:41;;;;;;;1.38;0.30;;;;;;;10.94;81.23;99608.13;10210885;28;20110;-63
2023/01/13 00:57:43;;;;;;;3.67;0.35;;;;;;;10.97;81.54;99596.97;10204258;28;21065;-64
2023/01/13 01:02:45;;;;;;;2.03;0.50;;;;;;;10.97;81.63;99591.59;10207572;28;20513;-62
2023/01/13 01:07:46;;;;;;;2.22;0.20;;;;;;;10.98;81.39;99579.81;10199836;28;20052;-63
2023/01/13 01:12:49;;;;;;;4.07;0.22;;;;;;;10.99;81.30;99611.06;10203023;28;20162;-62
2023/01/13 01:17:51;;;;;;;1.20;0.20;;;;;;;10.99;81.46;99605.69;10212460;28;20043;-64
2023/01/13 01:22:52;;;;;;;2.70;0.40;;;;;;;11.02;81.49;99602.59;10210435;28;20097;-63
2023/01/13 01:27:54;;;;;;;0.77;0.20;;;;;;;11.03;81.23;99602.41;10210505;28;20070;-64
2023/01/13 01:32:56;;;;;;;5.47;0.50;;;;;;;11.01;81.35;99606.31;10197482;28;20070;-62
2023/01/13 01:37:57;;;;;;;3.33;0.40;;;;;;;11.02;81.58;99599.91;10202435;28;20088;-59
2023/01/13 01:48:19;;;;;;;2.13;0.52;;;;;;;11.01;81.11;99588.31;10197378;28;20054;-61
2023/01/13 01:53:26;;;;;;;1.77;0.20;;;;;;;11.05;81.50;99588.75;10196987;28;20147;-60
2023/01/13 01:58:30;;;;;;;2.07;0.40;;;;;;;11.07;81.07;99570.56;10200034;28;20083;-60
2023/01/13 02:03:37;;;;;;;1.08;0.47;;;;;;;11.11;81.08;99567.25;10213910;28;20071;-60
2023/01/13 02:08:40;;;;;;;0.95;0.30;;;;;;;11.07;81.26;99559.81;10199329;28;20150;-59
2023/01/13 02:13:41;;;;;;;1.90;0.30;;;;;;;11.08;81.01;99561.47;10205477;28;20047;-60
2023/01/13 02:19:25;;;;;;;2.40;0.57;;;;;;;11.05;81.01;99562.69;10211235;28;20134;-60
2023/01/13 02:24:54;;;;;;;2.38;0.30;;;;;;;11.04;81.48;99549.47;10177405;28;20077;-61
2023/01/13 02:35:58;;;;;;;2.53;0.32;;;;;;;10.93;81.37;99542.75;10213302;28;20447;-59
2023/01/13 02:46:34;;;;;;;3.97;0.13;;;;;;;10.96;81.35;99520.00;10209077;29;20094;-60
2023/01/13 02:51:38;;;;;;;1.02;0.20;;;;;;;10.88;81.76;99511.09;10200024;28;20075;-61
2023/01/13 02:56:46;;;;;;;1.77;0.30;;;;;;;10.86;81.82;99515.84;10209340;28;20510;-60
2023/01/13 03:01:48;;;;;;;0.68;0.10;;;;;;;10.93;82.06;99517.75;10203871;28;20091;-59
2023/01/13 03:07:11;;;;;;;0.75;0.20;;;;;;;10.97;81.64;99519.81;10204039;28;20055;-59
2023/01/13 03:12:25;;;;;;;1.20;0.10;;;;;;;11.01;81.43;99526.47;10210265;28;20118;-58
2023/01/13 03:17:42;;;;;;;1.70;0.20;;;;;;;10.99;81.53;99528.53;10203872;29;20047;-58
2023/01/13 03:23:02;;;;;;;0.50;0.10;;;;;;;11.03;81.80;99531.66;10200778;29;20054;-59
2023/01/13 03:28:20;;;;;;;0.60;0.20;;;;;;;11.02;81.73;99513.84;10200594;28;20115;-59
2023/01/13 03:33:27;;;;;;;;;;;;;;;11.03;81.60;99516.34;10201402;28;20448;-60
2023/01/13 03:38:34;;;;;;;0.55;0.10;;;;;;;11.09;81.56;99506.63;10201669;29;19959;-60
2023/01/13 03:49:03;;;;;;;0.55;0.45;;;;;;;11.18;81.52;99494.69;10210930;28;20048;-61
2023/01/13 03:54:09;;;;;;;0.50;0.10;;;;;;;11.23;81.11;99486.00;10193067;28;20146;-59
2023/01/13 03:59:22;;;;;;;1.65;0.10;;;;;;;11.26;81.14;99491.00;10198882;29;20168;-59
2023/01/13 04:04:31;;;;;;;2.58;0.10;;;;;;;11.31;80.88;99488.50;10209655;28;20094;-59
2023/01/13 04:09:44;;;;;;;0.40;0.00;;;;;;;11.32;80.44;99485.63;10206434;28;20075;-60
2023/01/13 04:14:46;;;;;;;0.55;0.10;;;;;;;11.27;80.83;99469.25;10196431;28;20072;-61
2023/01/13 04:19:47;;;;;;;0.50;0.10;;;;;;;11.29;80.41;99472.59;10201081;29;20052;-60
2023/01/13 04:24:49;;;;;;;0.43;0.17;;;;;;;11.33;80.28;99462.22;10211864;28;20447;-61
2023/01/13 04:29:50;;;;;;;0.38;0.10;;;;;;;11.33;80.45;99451.47;10206250;28;20111;-61
2023/01/13 04:34:51;;;;;;;0.38;0.10;;;;;;;11.39;80.43;99456.03;10205646;29;20082;-58
2023/01/13 04:39:53;;;;;;;0.45;0.10;;;;;;;11.45;80.28;99441.78;10199469;28;20545;-60
2023/01/13 04:44:55;;;;;;;0.17;0.10;;;;;;;11.43;80.08;99460.00;10208058;28;20107;-58
2023/01/13 04:49:56;;;;;;;0.45;0.10;;;;;;;11.39;79.82;99466.78;10203148;28;20048;-58
2023/01/13 04:54:58;;;;;;;0.00;0.00;;;;;;;11.35;79.99;99460.16;10202520;28;20068;-60
2023/01/13 05:00:00;;;;;;;0.10;0.00;;;;;;;11.19;80.66;99461.38;10208628;28;20070;-62
2023/01/13 05:05:02;;;;;;;1.67;0.10;;;;;;;10.97;81.05;99470.59;10203253;28;20120;-61
2023/01/13 05:10:04;;;;;;;1.38;0.10;;;;;;;10.78;81.34;99481.06;10197574;28;20106;-61
2023/01/13 05:20:26;;;;;;;0.82;0.10;;;;;;;10.52;82.23;99559.66;10211025;28;20071;-59
2023/01/13 05:25:27;;;;;;;0.20;0.00;;;;;;;9.76;82.69;99562.88;10201632;29;20391;-57
2023/01/13 05:30:32;;;;;;;0.95;0.00;;;;;;;9.57;82.75;99582.25;10204282;28;20130;-58
2023/01/13 05:35:36;;;;;;;0.17;0.00;;;;;;;9.42;82.91;99569.72;10211781;28;20098;-57
2023/01/13 05:46:03;;;;;;;0.93;0.55;;;;;;;9.27;83.13;99558.16;10207413;29;20056;-58
2023/01/13 05:51:06;;;;;;;1.65;0.00;;;;;;;9.33;82.83;99578.88;10207593;28;20047;-57
2023/01/13 05:56:09;;;;;;;0.60;0.10;;;;;;;9.19;83.35;99615.41;10212462;28;20106;-60
2023/01/13 06:01:10;;;;;;;0.10;0.00;;;;;;;8.82;83.55;99601.06;10217742;28;20091;-59
2023/01/13 06:06:11;;;;;;;1.08;0.10;;;;;;;8.85;83.30;99594.53;10207108;28;20123;-59
2023/01/13 06:11:13;;;;;;;0.73;0.00;;;;;;;8.64;83.75;99595.22;10213751;28;20110;-58
2023/01/13 06:16:14;;;;;;;3.90;0.20;;;;;;;8.70;83.11;99573.88;10216819;29;20059;-59
2023/01/13 06:21:16;;;;;;;1.23;0.10;;;;;;;8.67;83.04;99565.41;10217670;28;20514;-59
2023/01/13 06:26:22;;;;;;;3.88;0.10;;;;;;;8.85;82.98;99576.59;10204858;29;20143;-58
2023/01/13 06:31:27;;;;;;;2.55;0.40;;;;;;;8.86;82.79;99614.94;10206566;28;20051;-59
2023/01/13 06:36:34;;;;;;;2.38;0.00;;;;;;;8.92;83.06;99619.56;10206269;28;20058;-59
2023/01/13 06:46:56;;;;;;;3.13;0.10;;;;;;;9.09;82.60;99598.78;10209899;29;20087;-59
2023/01/13 06:51:57;;;;;;;4.05;0.25;;;;;;;9.17;82.68;99553.09;10214541;28;20056;-59
2023/01/13 06:56:59;;;;;;;1.92;0.08;;;;;;;9.27;82.71;99558.16;10211645;28;20123;-59
2023/01/13 07:02:01;;;;;;;7.63;0.28;;;;;;;9.17;82.40;99577.22;10205873;28;20058;-59
2023/01/13 07:07:03;;;;;;;3.35;0.05;;;;;;;9.15;82.85;99565.03;10209312;28;20059;-60
2023/01/13 07:12:05;;;;;;;0.20;0.05;;;;;;;9.21;82.85;99565.09;10206039;28;20306;-60
2023/01/13 07:17:06;;;;;;;2.60;0.15;;;;;;;9.29;82.74;99573.03;10202251;29;20079;-60
2023/01/13 07:22:07;;;;;;;3.65;0.28;;;;;;;9.33;82.54;99585.06;10205462;28;20071;-60
2023/01/13 07:27:09;;;;;;;3.10;0.20;;;;;;;9.36;82.73;99599.97;10198429;28;20059;-60
2023/01/13 07:32:10;;;;;;;1.17;0.10;;;;;;;9.33;82.85;99593.09;10195933;29;20166;-59
2023/01/13 07:37:11;;;;;;;0.47;0.20;;;;;;;9.32;82.91;99606.69;10195029;28;20989;-59
2023/01/13 07:47:33;;;;;;;1.02;0.55;;;;;;;9.32;83.14;99612.06;10200439;29;20115;-59
2023/01/13 07:52:34;;;;;;;1.55;0.25;;;;;;;9.31;82.77;99638.06;10200242;28;20051;-59
2023/01/13 07:57:36;;;;;;;1.83;0.20;;;;;;;9.25;82.67;99640.66;10198967;28;20055;-59
2023/01/13 08:02:37;;;;;;;1.15;0.10;;;;;;;9.23;83.15;99648.88;10199739;28;20085;-60
2023/01/13 08:07:39;;;;;;;0.68;0.15;;;;;;;9.29;82.71;99647.31;10202681;28;20048;-60
2023/01/13 08:18:00;;;;;;;1.05;0.22;;;;;;;9.31;82.73;99666.72;10193947;29;20253;-60
2023/01/13 08:23:02;;;;;;;2.75;0.13;;;;;;;9.38;82.60;99666.81;10201076;29;20114;-59
2023/01/13 08:28:07;;;;;;;0.50;0.20;;;;;;;9.36;82.67;99675.06;10199108;29;20067;-60
2023/01/13 08:33:10;;;;;;;1.27;0.20;;;;;;;9.42;82.44;99673.47;10204553;28;20063;-58
2023/01/13 08:38:12;;;;;;;2.47;0.10;;;;;;;9.50;82.55;99686.81;10204386;28;20566;-58
2023/01/13 08:43:13;;;;;;;0.95;0.10;;;;;;;9.57;82.45;99686.91;10197859;28;20419;-60
2023/01/13 08:48:15;;;;;;;2.50;0.00;;;;;;;9.57;82.46;99686.91;10200264;28;20054;-59
2023/01/13 08:53:16;;;;;;;0.95;0.30;;;;;;;9.55;82.26;99702.34;10193808;29;20146;-59
2023/01/13 08:58:17;;;;;;;0.47;0.10;;;;;;;9.59;82.37;99709.00;10189553;28;20052;-59
2023/01/13 09:03:19;;;;;;;1.33;0.30;;;;;;;9.73;82.05;99725.13;10196649;28;20058;-60
2023/01/13 09:08:20;;;;;;;2.42;0.28;;;;;;;9.82;81.84;99728.53;10205381;28;20168;-59
2023/01/13 09:13:22;;;;;;;3.92;0.40;;;;;;;9.80;81.73;99721.69;10210519;28;20054;-61
2023/01/13 09:18:23;;;;;;;2.92;0.32;;;;;;;9.81;81.82;99724.16;10205692;28;20079;-59
2023/01/13 09:23:25;;;;;;;2.28;0.20;;;;;;;9.80;82.23;99730.56;10199619;29;20079;-59
2023/01/13 09:28:26;;;;;;;1.85;0.13;;;;;;;9.83;82.30;99743.59;10210423;29;20075;-59
2023/01/13 09:38:50;;;;;;;2.72;0.20;;;;;;;9.82;82.20;99747.31;10210439;28;20051;-59
2023/01/13 09:43:57;;;;;;;1.20;0.05;;;;;;;9.88;82.29;99740.38;10208091;28;20142;-59
2023/01/13 09:49:02;;;;;;;1.38;0.45;;;;;;;9.91;82.29;99743.53;10226095;28;20142;-59
2023/01/13 09:54:21;;;;;;;1.88;0.20;;;;;;;10.04;82.16;99760.81;10202030;28;20044;-60
2023/01/13 09:59:27;;;;;;;2.03;0.10;;;;;;;10.12;82.09;99768.75;10201005;28;20743;-60
2023/01/13 10:04:29;;;;;;;1.25;0.32;;;;;;;10.26;81.68;99783.19;10207223;28;20048;-60
2023/01/13 10:09:47;;;;;;;4.72;0.10;;;;;;;10.23;81.39;99779.03;10211533;28;20055;-60
2023/01/13 10:14:54;;;;;;;3.00;0.28;;;;;;;10.40;81.05;99768.09;10206305;29;20099;-59
2023/01/13 10:20:20;;;;;;;2.30;0.13;;;;;;;10.51;80.73;99768.44;10204077;29;20562;-61
2023/01/13 10:25:49;;;;;;;8.13;0.82;;;;;;;10.60;80.04;99763.75;10201220;28;20138;-61
2023/01/13 10:30:51;;;;;;;3.25;0.30;;;;;;;10.76;79.84;99768.06;10200943;28;20275;-60
2023/01/13 10:35:58;;;;;;;1.58;0.32;;;;;;;10.82;78.93;99763.75;10199603;28;20043;-60
2023/01/13 10:41:24;;;;;;;5.75;0.60;;;;;;;11.04;78.31;99764.63;10202316;28;20055;-61
2023/01/13 10:46:27;;;;;;;7.72;0.77;;;;;;;11.29;77.37;99765.00;10207221;28;20048;-63
2023/01/13 10:51:40;;;;;;;4.03;0.40;;;;;;;11.47;76.96;99762.69;10199589;28;20052;-63
2023/01/13 10:56:43;;;;;;;9.35;0.77;;;;;;;11.50;76.47;99778.41;10199254;29;20129;-62
2023/01/13 11:02:13;;;;;;;5.10;0.80;;;;;;;11.23;76.56;99782.75;10197457;29;20414;-62
2023/01/13 11:07:37;;;;;;;2.28;0.20;;;;;;;10.13;78.22;99800.81;10194734;28;20051;-61
2023/01/13 11:12:57;;;;;;;5.13;0.45;;;;;;;9.35;79.64;99798.63;10185793;28;20436;-61
2023/01/13 11:18:25;;;;;;;4.55;0.30;;;;;;;9.01;79.83;99811.47;10194403;28;20678;-60
2023/01/13 11:23:30;;;;;;;4.93;0.17;;;;;;;8.67;79.82;99818.06;10204455;28;20063;-60
2023/01/13 11:28:39;;;;;;;0.43;0.20;;;;;;;8.29;79.95;99809.03;10203579;28;20074;-61
2023/01/13 11:34:03;;;;;;;2.53;0.10;;;;;;;8.20;80.06;99775.28;10191961;28;20087;-60
2023/01/13 11:39:25;;;;;;;2.17;0.20;;;;;;;8.19;80.26;99787.81;10201082;28;20696;-59
2023/01/13 11:44:39;;;;;;;1.85;0.73;;;;;;;8.31;80.80;99802.50;10221422;28;20153;-58
2023/01/13 11:49:47;;;;;;;5.45;0.20;;;;;;;8.49;80.99;99796.91;10206410;28;20071;-59
2023/01/13 11:55:17;;;;;;;0.70;0.20;;;;;;;8.67;80.88;99798.50;10202107;28;20126;-59
2023/01/13 12:00:29;;;;;;;6.10;0.50;;;;;;;8.87;80.80;99804.22;10201528;28;20079;-60
2023/01/13 12:05:39;;;;;;;4.57;0.30;;;;;;;9.02;81.01;99812.28;10200740;28;20141;-60
2023/01/13 12:10:45;;;;;;;2.20;0.43;;;;;;;9.19;80.30;99794.25;10203882;28;20478;-59
2023/01/13 12:16:08;;;;;;;0.93;0.20;;;;;;;9.42;80.21;99788.81;10196895;28;20139;-60
2023/01/13 12:21:18;;;;;;;3.33;0.32;;;;;;;9.61;79.20;99780.25;10195515;29;20075;-62
2023/01/13 12:26:20;;;;;;;4.60;0.80;;;;;;;9.80;78.67;99773.50;10203438;28;20079;-60
2023/01/13 12:31:23;;;;;;;7.38;0.70;;;;;;;9.96;78.50;99772.47;10201134;28;20067;-60
2023/01/13 12:36:47;;;;;;;8.35;0.57;;;;;;;10.20;77.68;99767.81;10196155;28;20066;-59
2023/01/13 12:47:34;;;;;;;3.97;0.32;;;;;;;10.42;77.15;99766.03;10202224;28;20050;-60
2023/01/13 12:52:43;;;;;;;8.50;0.95;;;;;;;10.59;76.70;99772.84;10199882;28;20162;-61
2023/01/13 12:57:54;;;;;;;5.10;0.30;;;;;;;10.83;75.87;99778.88;10195010;28;20063;-62
2023/01/13 13:03:11;;;;;;;5.20;0.30;;;;;;;10.97;74.13;99771.78;10202081;28;20056;-61
2023/01/13 13:08:25;;;;;;;3.83;1.05;;;;;;;11.03;72.93;99771.81;10191807;28;20083;-61
2023/01/13 13:13:47;;;;;;;7.43;0.85;;;;;;;11.08;72.59;99765.88;10198046;28;20115;-62
2023/01/13 13:18:48;;;;;;;8.15;0.70;;;;;;;11.07;72.81;99753.44;10192935;28;20083;-62
2023/01/13 13:24:01;;;;;;;4.53;0.28;;;;;;;10.97;72.25;99795.97;10201427;29;20087;-62
2023/01/13 13:29:21;;;;;;;3.25;0.50;;;;;;;10.19;73.30;99819.88;10204504;28;20061;-61
2023/01/13 13:34:48;;;;;;;5.05;0.30;;;;;;;9.87;74.60;99849.59;10196816;28;20083;-62
2023/01/13 13:50:46;;;;;;;6.30;0.30;;;;;;;8.99;76.66;99871.66;10203367;28;20043;-63
2023/01/13 13:55:52;;;;;;;;;;;;;;;8.95;76.58;99860.44;10194236;28;20495;-62
2023/01/13 14:00:54;;;;;;;3.80;0.30;;;;;;;8.99;76.79;99850.19;10194125;28;20001;-64
2023/01/13 14:06:05;;;;;;;4.38;0.45;;;;;;;9.06;76.90;99862.72;10199581;28;20578;-64
2023/01/13 14:11:28;;;;;;;1.95;0.20;;;;;;;9.23;76.67;99870.63;10202609;28;20466;-62
2023/01/13 14:16:31;;;;;;;2.35;0.20;;;;;;;9.35;76.60;99871.88;10207253;28;20079;-63
2023/01/13 14:21:34;;;;;;;2.95;1.00;;;;;;;9.45;76.50;99879.69;10210437;28;20079;-63
2023/01/13 14:26:35;;;;;;;1.23;0.10;;;;;;;9.55;76.74;99885.63;10212346;29;20481;-63
2023/01/13 14:31:37;;;;;;;2.20;0.70;;;;;;;9.66;76.98;99879.00;10200055;28;20139;-62
2023/01/13 14:36:40;;;;;;;4.95;0.93;;;;;;;9.74;76.74;99900.41;10197178;29;20044;-62
2023/01/13 14:41:41;;;;;;;6.45;0.57;;;;;;;9.87;76.42;99905.13;10190307;29;20102;-62
2023/01/13 14:46:45;;;;;;;4.35;0.30;;;;;;;9.98;76.15;99909.25;10205457;28;20044;-62
2023/01/13 14:51:47;;;;;;;4.25;0.52;;;;;;;10.08;76.56;99917.84;10194985;28;20062;-62
2023/01/13 14:56:54;;;;;;;6.28;0.30;;;;;;;10.11;75.64;99915.66;10197227;28;20539;-62
2023/01/13 15:01:55;;;;;;;2.87;0.20;;;;;;;10.20;75.57;99910.19;10198106;28;20080;-62
2023/01/13 15:06:58;;;;;;;1.55;0.52;;;;;;;10.22;75.27;99916.19;10201001;28;20087;-62
2023/01/13 15:12:21;;;;;;;3.85;0.25;;;;;;;10.22;74.79;99922.41;10195179;28;20070;-61
2023/01/13 15:17:23;;;;;;;6.05;0.50;;;;;;;10.28;75.04;99935.09;10200368;28;20060;-62
2023/01/13 15:22:24;;;;;;;2.25;0.30;;;;;;;10.32;74.62;99960.59;10197760;28;20063;-62
2023/01/13 15:27:25;;;;;;;4.55;0.40;;;;;;;10.36;74.24;99963.75;10209668;28;20051;-63
2023/01/13 15:32:27;;;;;;;3.47;0.47;;;;;;;10.37;73.81;99972.63;10222177;28;20083;-62
2023/01/13 15:37:28;;;;;;;6.10;1.17;;;;;;;10.41;73.65;99982.03;10233735;29;20048;-61
2023/01/13 15:47:49;;;;;;;4.10;0.57;;;;;;;10.46;73.46;100004.63;10227685;29;20872;-63
2023/01/13 15:52:50;;;;;;;5.78;0.65;;;;;;;10.43;73.42;100010.38;10236376;28;20063;-64
2023/01/13 15:57:52;;;;;;;9.85;1.25;;;;;;;10.49;73.21;100008.81;10231977;28;20039;-64
2023/01/13 16:02:53;;;;;;;4.45;0.70;;;;;;;10.51;73.13;100015.66;10233044;28;20055;-64
2023/01/13 16:07:55;;;;;;;4.72;0.85;;;;;;;10.48;73.03;100016.00;10234013;28;20491;-63
2023/01/13 16:12:56;;;;;;;6.47;1.75;;;;;;;10.44;73.04;100020.09;10231433;28;20047;-62
2023/01/13 16:18:01;;;;;;;2.90;0.40;;;;;;;10.41;72.81;100017.78;10219422;28;20053;-63
2023/01/13 16:23:03;;;;;;;5.22;0.40;;;;;;;10.43;73.20;100033.72;10227036;28;20083;-64
2023/01/13 16:28:05;;;;;;;4.80;0.38;;;;;;;10.40;72.91;100052.91;10206787;28;20099;-64
2023/01/13 16:33:06;;;;;;;5.28;0.80;;;;;;;10.40;72.87;100052.91;10204202;28;20110;-62
2023/01/13 16:38:26;;;;;;;6.35;0.40;;;;;;;10.41;72.37;100073.38;10199811;29;20142;-62
2023/01/13 16:43:27;;;;;;;3.78;0.32;;;;;;;10.41;72.28;100079.59;10191923;28;20060;-63
2023/01/13 16:48:28;;;;;;;5.63;0.40;;;;;;;10.47;72.19;100091.47;10195939;28;20154;-60
2023/01/13 16:53:30;;;;;;;1.33;0.30;;;;;;;10.50;72.13;100094.63;10199441;28;20079;-64
2023/01/13 16:58:31;;;;;;;2.85;0.43;;;;;;;10.56;71.83;100108.34;10197220;28;20068;-65
2023/01/13 17:03:34;;;;;;;4.60;1.33;;;;;;;10.59;71.60;100116.06;10191856;28;20091;-61
2023/01/13 17:08:36;;;;;;;3.10;0.90;;;;;;;10.60;71.83;100115.03;10197590;28;20052;-65
2023/01/13 17:13:38;;;;;;;5.13;0.85;;;;;;;10.60;71.85;100118.53;10192383;28;20484;-62
2023/01/13 17:18:39;;;;;;;5.22;1.10;;;;;;;10.66;71.69;100130.41;10212026;28;20055;-63
2023/01/13 17:23:41;;;;;;;3.72;0.40;;;;;;;10.69;71.34;100125.53;10202731;28;20130;-63
2023/01/13 17:28:45;;;;;;;4.90;0.40;;;;;;;10.61;71.38;100139.03;10201371;28;20055;-66
2023/01/13 17:33:46;;;;;;;2.85;0.70;;;;;;;10.54;71.71;100145.31;10207148;28;20124;-62
2023/01/13 17:38:47;;;;;;;6.40;0.75;;;;;;;10.42;71.64;100140.38;10198814;29;20071;-61
2023/01/13 17:43:49;;;;;;;6.20;0.73;;;;;;;10.37;71.97;100148.16;10213736;28;20478;-64
2023/01/13 17:48:53;;;;;;;5.97;0.63;;;;;;;10.28;72.07;100143.81;10199664;28;20067;-60
2023/01/13 17:53:55;;;;;;;5.57;1.10;;;;;;;10.30;71.79;100155.25;10199153;29;20951;-62
2023/01/13 17:58:57;;;;;;;10.32;1.88;;;;;;;10.22;71.92;100160.63;10205907;28;20051;-65
2023/01/13 18:03:59;;;;;;;6.95;0.82;;;;;;;10.18;71.40;100165.53;10206034;29;20044;-65
2023/01/13 18:09:00;;;;;;;5.10;0.95;;;;;;;10.23;71.32;100181.09;10201752;29;20538;-62
2023/01/13 18:14:02;;;;;;;8.40;2.40;;;;;;;10.24;71.22;100185.47;10212064;28;20052;-64
2023/01/13 18:29:50;;;;;;;3.78;0.38;;;;;;;10.28;71.14;100217.16;10199047;28;20091;-64
2023/01/13 18:34:52;;;;;;;5.93;0.55;;;;;;;10.26;71.04;100221.06;10204016;29;20055;-66
2023/01/13 18:40:08;;;;;;;5.30;0.50;;;;;;;10.27;70.91;100239.69;10203519;28;20731;-65
2023/01/13 18:45:09;;;;;;;3.45;0.63;;;;;;;10.29;70.59;100240.34;10196912;28;20059;-66
2023/01/13 18:50:12;;;;;;;5.60;1.35;;;;;;;10.28;70.75;100235.16;10205120;29;20138;-66
2023/01/13 18:55:14;;;;;;;5.25;0.50;;;;;;;10.23;70.49;100251.81;10212051;28;20055;-67
2023/01/13 19:00:19;;;;;;;6.47;0.80;;;;;;;10.24;70.57;100253.47;10203718;28;20043;-65
2023/01/13 19:05:20;;;;;;;7.00;0.70;;;;;;;10.25;70.35;100257.84;10197279;28;20368;-66
2023/01/13 19:10:22;;;;;;;4.45;0.50;;;;;;;10.24;70.30;100268.75;10204355;28;20079;-67
2023/01/13 19:15:23;;;;;;;6.70;0.70;;;;;;;10.25;70.38;100263.22;10203998;28;20411;-67
2023/01/13 19:20:25;;;;;;;3.58;0.70;;;;;;;10.21;70.44;100269.94;10210279;29;20694;-67
2023/01/13 19:25:26;;;;;;;8.95;0.73;;;;;;;10.24;70.50;100283.00;10206257;28;20102;-67
2023/01/13 19:30:28;;;;;;;5.90;1.20;;;;;;;10.26;70.61;100299.78;10197547;28;20166;-67
2023/01/13 19:35:29;;;;;;;9.45;1.05;;;;;;;10.19;70.60;100312.28;10201458;29;20462;-67
2023/01/13 19:40:30;;;;;;;5.78;0.95;;;;;;;10.08;70.86;100313.47;10198521;28;20138;-66
2023/01/13 19:45:34;;;;;;;11.38;0.80;;;;;;;10.12;70.72;100325.53;10212121;28;20566;-67
2023/01/13 19:50:39;;;;;;;7.13;1.70;;;;;;;10.19;70.53;100333.75;10202999;29;20158;-69
2023/01/13 19:55:48;;;;;;;9.43;1.17;;;;;;;10.20;70.31;100334.59;10209526;28;20475;-67
2023/01/13 20:00:50;;;;;;;7.40;1.05;;;;;;;10.25;70.68;100330.38;10203521;28;20059;-65
2023/01/13 20:05:52;;;;;;;7.25;0.55;;;;;;;10.27;70.74;100341.78;10203045;28;20225;-66
2023/01/13 20:11:20;;;;;;;6.15;1.17;;;;;;;10.32;70.88;100341.28;10201262;28;20543;-66
2023/01/13 20:16:15;;;;;;;8.85;1.17;;;;;;;10.24;70.83;100363.59;10218209;28;20481;-65
2023/01/13 20:21:16;;;;;;;7.28;0.93;;;;;;;10.24;70.57;100360.91;10204267;28;20047;-67
2023/01/13 20:26:20;;;;;;;7.03;0.77;;;;;;;10.23;70.58;100363.78;10209900;28;20454;-66
2023/01/13 20:31:21;;;;;;;6.15;0.73;;;;;;;10.24;70.81;100381.59;10194714;28;20566;-66
2023/01/13 20:36:29;;;;;;;4.90;0.82;;;;;;;10.30;70.11;100384.44;10205077;28;20051;-65
2023/01/13 20:46:53;;;;;;;5.85;1.15;;;;;;;10.21;70.09;100389.97;10196410;29;20075;-66
2023/01/13 20:51:55;;;;;;;10.48;1.38;;;;;;;10.20;69.99;100391.81;10198848;28;20071;-67
2023/01/13 20:56:59;;;;;;;9.30;1.35;;;;;;;10.16;70.09;100397.72;10212255;28;20578;-66
2023/01/13 21:02:01;;;;;;;5.45;1.25;;;;;;;10.17;70.00;100402.06;10203507;28;20052;-68
2023/01/13 21:07:02;;;;;;;3.08;0.60;;;;;;;10.12;69.46;100400.75;10193888;28;20107;-66
2023/01/13 21:22:46;;;;;;;6.55;0.50;;;;;;;10.09;69.06;100414.53;10209600;28;20135;-66
2023/01/13 21:27:47;;;;;;;4.90;0.82;;;;;;;10.10;69.09;100424.25;10207530;29;20363;-68
2023/01/13 21:32:49;;;;;;;5.35;0.40;;;;;;;10.10;68.94;100426.94;10202787;28;20099;-66
2023/01/13 21:37:50;;;;;;;3.92;0.50;;;;;;;10.10;69.03;100434.16;10204834;28;20542;-66
2023/01/13 21:48:28;;;;;;;5.70;0.60;;;;;;;10.09;69.27;100445.91;10157742;28;20450;-65
2023/01/13 21:53:30;;;;;;;6.45;1.10;;;;;;;10.02;69.13;100458.34;10203236;28;20143;-64
2023/01/13 21:58:31;;;;;;;4.72;0.98;;;;;;;10.07;69.22;100474.78;10212627;28;20081;-65
2023/01/13 22:04:11;;;;;;;7.65;0.75;;;;;;;9.87;69.78;100451.00;10213882;28;20051;-66
2023/01/13 22:08:55;;;;;;;8.00;0.88;;;;;;;9.60;69.84;100462.91;10206254;28;20136;-66
2023/01/13 22:14:07;;;;;;;11.25;0.73;;;;;;;9.49;69.94;100472.09;10215851;28;20137;-65
2023/01/13 22:19:09;;;;;;;6.68;1.08;;;;;;;9.47;69.76;100478.66;10203674;28;20051;-62
2023/01/13 22:24:11;;;;;;;6.88;1.05;;;;;;;9.42;69.98;100489.03;10199099;28;20503;-67
2023/01/13 22:29:12;;;;;;;8.55;1.40;;;;;;;9.44;69.68;100492.38;10199099;28;20150;-67
2023/01/13 22:34:13;;;;;;;6.78;0.90;;;;;;;9.36;70.01;100495.06;10195970;28;20139;-67
2023/01/13 22:39:15;;;;;;;7.25;0.80;;;;;;;9.36;70.11;100490.53;10195555;28;20155;-67
2023/01/13 22:44:16;;;;;;;8.82;0.63;;;;;;;9.30;70.32;100499.22;10214919;28;20142;-67
2023/01/13 22:49:18;;;;;;;7.40;0.90;;;;;;;9.27;70.52;100496.88;10212987;28;20564;-67
2023/01/13 22:54:20;;;;;;;8.77;1.25;;;;;;;9.15;70.89;100509.75;10207846;28;20146;-68
2023/01/13 22:59:21;;;;;;;5.63;0.70;;;;;;;9.03;71.20;100513.75;10200807;28;20047;-66
2023/01/13 23:04:23;;;;;;;6.55;0.63;;;;;;;9.01;71.48;100513.06;10202016;28;20059;-66
2023/01/13 23:09:28;;;;;;;5.70;0.80;;;;;;;9.02;71.72;100522.78;10194745;28;20063;-66
2023/01/13 23:14:29;;;;;;;6.40;0.93;;;;;;;8.99;71.91;100520.44;10203553;28;20118;-65
2023/01/13 23:19:31;;;;;;;2.50;0.32;;;;;;;8.74;72.73;100518.47;10190172;28;20052;-66
2023/01/13 23:24:32;;;;;;;2.53;0.70;;;;;;;8.46;73.10;100517.81;10200112;28;20431;-62
2023/01/13 23:29:34;;;;;;;2.47;0.45;;;;;;;8.25;73.48;100519.97;10202372;28;20052;-63
2023/01/13 23:34:35;;;;;;;3.33;0.40;;;;;;;8.16;74.20;100524.44;10197905;28;20249;-64
2023/01/13 23:39:37;;;;;;;4.60;0.60;;;;;;;8.17;74.05;100514.56;10193352;28;20075;-64
2023/01/13 23:44:45;;;;;;;8.00;0.65;;;;;;;8.19;74.38;100520.59;10441970;27;20135;-65
2023/01/13 23:49:46;;;;;;;7.22;0.88;;;;;;;8.20;74.52;100520.47;10381437;28;20151;-64
2023/01/13 23:54:48;;;;;;;8.95;0.70;;;;;;;8.24;74.13;100519.16;10385919;28;20563;-63
2023/01/13 23:59:49;;;;;;;11.65;1.52;;;;;;;8.31;74.17;100517.53;10381382;28;20076;-64
